Time;durP1;ratioP1;P1;durP2;ratioP2;P2;SDS_P1;SDS_P2;PMS_P1;PMS_P2;Temp;Humidity;BMP_temperature;BMP_pressure;BME280_temperature;BME280_humidity;BME280_pressure;Samples;Min_cycle;Max_cycle;Signal;HPM_P1;HPM_P2
2022/06/11 00:02:03;;;;;;;7.00;1.30;;;21.00;92.30;;;;;;5030319;28;20026;-85
2022/06/11 00:04:39;;;;;;;4.32;1.63;;;21.00;92.20;;;;;;5029586;28;20044;-85
2022/06/11 00:07:12;;;;;;;8.10;1.55;;;21.00;92.40;;;;;;5029736;28;20505;-83
2022/06/11 00:09:38;;;;;;;4.57;1.52;;;21.00;92.30;;;;;;5033984;28;20044;-83
2022/06/11 00:12:05;;;;;;;2.90;1.40;;;20.90;92.50;;;;;;5034044;28;20033;-84
2022/06/11 00:14:32;;;;;;;7.20;1.63;;;20.90;92.80;;;;;;5033948;28;20037;-86
2022/06/11 00:16:59;;;;;;;8.30;1.65;;;20.90;92.70;;;;;;5034015;28;20045;-87
2022/06/11 00:19:26;;;;;;;5.38;1.88;;;20.90;92.70;;;;;;5033992;28;20033;-86
2022/06/11 00:21:54;;;;;;;3.65;1.58;;;20.90;92.80;;;;;;5033021;28;20025;-82
2022/06/11 00:24:22;;;;;;;4.90;1.60;;;20.90;92.70;;;;;;5034137;28;20051;-83
2022/06/11 00:26:48;;;;;;;;;;;20.90;92.80;;;;;;5034095;28;20108;-84
2022/06/11 00:29:15;;;;;;;4.78;1.60;;;20.80;92.70;;;;;;5033787;28;19908;-83
2022/06/11 00:31:42;;;;;;;5.63;1.40;;;20.80;92.70;;;;;;5033116;28;20583;-83
2022/06/11 00:34:09;;;;;;;4.40;1.47;;;20.80;92.80;;;;;;5033516;28;20036;-83
2022/06/11 00:36:35;;;;;;;8.18;2.40;;;20.80;92.70;;;;;;5033528;28;20057;-83
2022/06/11 00:39:04;;;;;;;7.10;2.20;;;20.70;92.90;;;;;;5032430;28;20041;-83
2022/06/11 00:41:30;;;;;;;8.25;2.00;;;20.80;92.80;;;;;;5031967;28;20037;-84
2022/06/11 00:43:56;;;;;;;4.32;1.80;;;20.70;92.70;;;;;;5033298;28;20034;-86
2022/06/11 00:46:45;;;;;;;5.93;1.83;;;20.70;92.80;;;;;;5032953;28;20159;-85
2022/06/11 00:49:19;;;;;;;7.20;1.80;;;20.70;92.80;;;;;;5033538;28;20069;-86
2022/06/11 00:51:46;;;;;;;9.32;2.45;;;20.70;92.70;;;;;;5033604;28;20625;-85
2022/06/11 00:54:17;;;;;;;4.80;1.63;;;20.70;92.60;;;;;;5032125;28;20223;-84
2022/06/11 00:56:49;;;;;;;4.88;1.50;;;20.70;92.70;;;;;;5032965;28;20120;-84
2022/06/11 00:59:20;;;;;;;7.03;1.75;;;20.70;92.60;;;;;;5031917;28;20037;-83
2022/06/11 01:01:47;;;;;;;4.78;1.60;;;20.70;92.70;;;;;;5032923;28;20029;-84
2022/06/11 01:04:31;;;;;;;6.22;2.80;;;20.70;92.70;;;;;;5033678;28;20038;-83
2022/06/11 01:07:04;;;;;;;7.15;1.98;;;20.70;92.60;;;;;;5033148;28;20104;-83
2022/06/11 01:09:35;;;;;;;4.85;1.67;;;20.70;92.60;;;;;;5032559;28;20038;-85
2022/06/11 01:12:16;;;;;;;9.60;2.00;;;20.70;92.60;;;;;;5032996;28;20033;-84
2022/06/11 01:14:51;;;;;;;6.35;1.60;;;20.60;92.60;;;;;;5033358;28;20038;-84
2022/06/11 01:17:54;;;;;;;8.73;2.20;;;20.70;92.60;;;;;;5033130;28;20025;-86
2022/06/11 01:20:39;;;;;;;6.97;1.67;;;20.60;92.50;;;;;;5032012;28;20044;-84
2022/06/11 01:23:38;;;;;;;5.25;1.48;;;20.60;92.50;;;;;;5033270;28;20367;-87
2022/06/11 01:26:52;;;;;;;8.10;1.40;;;20.50;92.40;;;;;;5033389;28;20486;-87
2022/06/11 01:29:46;;;;;;;3.92;1.63;;;20.50;92.50;;;;;;5016407;28;20033;-85
2022/06/11 01:32:34;;;;;;;5.97;1.58;;;20.50;92.60;;;;;;5033021;28;20038;-86
2022/06/11 01:35:16;;;;;;;6.75;1.50;;;20.50;92.50;;;;;;5031225;28;20047;-87
2022/06/11 01:37:57;;;;;;;4.97;1.55;;;20.50;92.50;;;;;;5012758;28;20026;-85
2022/06/11 01:40:50;;;;;;;3.88;1.60;;;20.40;92.50;;;;;;5012854;28;20037;-86
2022/06/11 01:43:18;;;;;;;7.68;1.48;;;20.50;92.50;;;;;;5011639;28;20026;-85
2022/06/11 01:45:46;;;;;;;10.95;1.60;;;20.40;92.40;;;;;;5012252;28;20032;-85
2022/06/11 01:48:18;;;;;;;4.38;1.55;;;20.50;92.40;;;;;;5012691;28;20430;-85
2022/06/11 01:50:53;;;;;;;4.53;1.45;;;20.40;92.40;;;;;;5012795;28;20030;-85
2022/06/11 01:53:41;;;;;;;6.07;1.63;;;20.40;92.40;;;;;;5013813;28;20037;-92
2022/06/11 01:56:15;;;;;;;6.80;2.38;;;20.40;92.40;;;;;;5013503;28;20121;-86
2022/06/11 01:59:09;;;;;;;3.20;1.60;;;20.40;92.30;;;;;;5013516;28;20030;-85
2022/06/11 02:02:09;;;;;;;4.22;1.33;;;20.40;92.40;;;;;;5011470;28;20115;-85
2022/06/11 02:04:55;;;;;;;8.30;1.95;;;20.40;92.30;;;;;;5012642;28;20034;-88
2022/06/11 02:07:44;;;;;;;5.15;1.55;;;20.40;92.40;;;;;;5011738;28;20444;-86
2022/06/11 02:10:16;;;;;;;5.55;1.42;;;20.30;92.20;;;;;;5012357;28;20072;-84
2022/06/11 02:12:52;;;;;;;3.42;1.08;;;20.30;92.30;;;;;;5012693;28;20072;-84
2022/06/11 02:15:30;;;;;;;8.68;1.85;;;20.30;92.20;;;;;;5012070;28;20503;-84
2022/06/11 02:18:03;;;;;;;3.30;1.07;;;20.40;92.40;;;;;;5012240;28;20145;-82
2022/06/11 02:20:42;;;;;;;7.95;1.50;;;20.40;92.30;;;;;;5011097;28;20026;-85
2022/06/11 02:23:16;;;;;;;6.50;1.25;;;20.30;92.20;;;;;;5012070;28;20030;-84
2022/06/11 02:25:47;;;;;;;7.30;1.88;;;20.40;92.30;;;;;;5012049;28;20121;-85
2022/06/11 02:28:17;;;;;;;8.73;2.17;;;20.30;92.30;;;;;;5011964;28;20045;-85
2022/06/11 02:30:45;;;;;;;3.58;1.50;;;20.30;92.30;;;;;;5010563;28;20042;-83
2022/06/11 02:33:11;;;;;;;;;;;20.30;92.10;;;;;;5012308;28;20459;-83
2022/06/11 02:35:43;;;;;;;6.05;1.50;;;20.30;92.10;;;;;;5011786;28;19925;-84
2022/06/11 02:38:13;;;;;;;6.32;1.35;;;20.30;92.30;;;;;;5011972;28;20471;-85
2022/06/11 02:40:43;;;;;;;4.22;1.20;;;20.30;92.30;;;;;;5011664;28;20041;-85
2022/06/11 02:43:10;;;;;;;7.85;1.50;;;20.30;92.20;;;;;;5011945;28;20372;-84
2022/06/11 02:45:36;;;;;;;4.40;1.30;;;20.20;92.30;;;;;;5011869;28;20108;-83
2022/06/11 02:48:03;;;;;;;6.57;1.55;;;20.30;92.40;;;;;;5011420;28;20105;-84
2022/06/11 02:50:31;;;;;;;2.00;1.30;;;20.30;92.40;;;;;;5011662;28;20057;-85
2022/06/11 02:52:58;;;;;;;6.35;1.50;;;20.20;92.40;;;;;;5011336;28;20045;-84
2022/06/11 02:55:25;;;;;;;4.03;1.08;;;20.30;92.30;;;;;;5011345;28;20037;-85
2022/06/11 02:57:51;;;;;;;3.58;1.25;;;20.30;92.40;;;;;;5011149;28;20022;-86
2022/06/11 03:00:21;;;;;;;6.55;1.48;;;20.20;92.40;;;;;;5011827;28;20364;-86
2022/06/11 03:02:48;;;;;;;9.20;1.48;;;20.20;92.40;;;;;;5011587;28;20026;-85
2022/06/11 03:05:17;;;;;;;5.93;1.45;;;20.30;92.30;;;;;;5011632;28;20394;-84
2022/06/11 03:07:42;;;;;;;6.40;1.40;;;20.20;92.50;;;;;;5011655;28;20061;-87
2022/06/11 03:10:08;;;;;;;8.45;1.83;;;20.20;92.50;;;;;;5011676;28;20448;-85
2022/06/11 03:12:34;;;;;;;8.25;1.80;;;20.20;92.60;;;;;;5011964;28;20084;-87
2022/06/11 03:15:01;;;;;;;6.20;1.90;;;20.20;92.50;;;;;;5011484;28;20462;-87
2022/06/11 03:17:28;;;;;;;4.45;1.58;;;20.20;92.70;;;;;;5010196;28;20113;-85
2022/06/11 03:19:54;;;;;;;5.05;1.63;;;20.20;92.70;;;;;;5011488;28;20034;-86
2022/06/11 03:22:20;;;;;;;5.47;1.55;;;20.20;92.70;;;;;;5011416;28;20534;-84
2022/06/11 03:24:46;;;;;;;5.13;1.52;;;20.10;92.70;;;;;;5011938;28;20022;-86
2022/06/11 03:27:12;;;;;;;4.63;1.42;;;20.20;92.80;;;;;;5011602;28;20147;-84
2022/06/11 03:29:38;;;;;;;10.15;1.65;;;20.20;92.80;;;;;;5011249;28;20045;-86
2022/06/11 03:32:04;;;;;;;4.00;1.52;;;20.20;92.80;;;;;;5010886;28;20046;-85
2022/06/11 03:34:30;;;;;;;4.82;1.25;;;20.10;92.80;;;;;;5011014;28;20041;-85
2022/06/11 03:36:57;;;;;;;10.32;1.25;;;20.10;92.70;;;;;;5011068;28;20025;-85
2022/06/11 03:39:23;;;;;;;5.93;1.80;;;20.10;92.80;;;;;;5011533;28;20025;-84
2022/06/11 03:41:50;;;;;;;2.97;1.40;;;20.10;93.00;;;;;;5010149;28;20026;-85
2022/06/11 03:44:16;;;;;;;5.30;1.67;;;20.10;93.00;;;;;;5014046;28;20026;-85
2022/06/11 03:46:42;;;;;;;6.68;1.38;;;20.10;92.90;;;;;;5015126;28;20107;-83
2022/06/11 03:49:09;;;;;;;7.65;1.83;;;20.10;93.10;;;;;;5014814;28;20022;-86
2022/06/11 03:51:34;;;;;;;4.13;1.27;;;20.10;93.10;;;;;;5015507;28;20093;-84
2022/06/11 03:54:01;;;;;;;7.05;1.90;;;20.10;93.00;;;;;;5013698;28;20050;-87
2022/06/11 03:56:26;;;;;;;4.22;1.50;;;20.10;92.80;;;;;;5015137;28;20176;-86
2022/06/11 03:58:53;;;;;;;5.10;1.75;;;20.10;92.90;;;;;;5015218;28;20113;-86
2022/06/11 04:01:19;;;;;;;2.38;1.35;;;20.10;92.90;;;;;;5014546;28;20030;-84
2022/06/11 04:03:49;;;;;;;5.97;1.42;;;20.20;93.10;;;;;;5013972;28;20026;-84
2022/06/11 04:06:20;;;;;;;2.97;0.93;;;20.20;93.00;;;;;;5014456;28;20045;-81
2022/06/11 04:08:46;;;;;;;5.63;1.33;;;20.20;93.00;;;;;;5014816;28;20038;-83
2022/06/11 04:11:16;;;;;;;5.00;1.17;;;20.20;93.00;;;;;;5014657;28;20034;-86
2022/06/11 04:13:43;;;;;;;5.68;1.38;;;20.30;93.10;;;;;;5013915;28;20038;-87
2022/06/11 04:16:28;;;;;;;5.88;1.52;;;20.20;93.20;;;;;;5013893;28;20029;-84
2022/06/11 04:18:57;;;;;;;4.97;1.35;;;20.20;93.40;;;;;;5016039;28;20101;-86
2022/06/11 04:21:24;;;;;;;4.95;1.30;;;20.20;93.20;;;;;;5015488;28;20052;-84
2022/06/11 04:23:53;;;;;;;6.20;1.23;;;20.20;93.20;;;;;;5014842;28;20054;-84
2022/06/11 04:26:23;;;;;;;4.47;1.45;;;20.20;93.20;;;;;;5014280;28;20082;-83
2022/06/11 04:28:49;;;;;;;4.97;1.67;;;20.30;93.20;;;;;;5014420;28;20048;-82
2022/06/11 04:31:16;;;;;;;8.75;1.50;;;20.30;93.20;;;;;;5012887;28;20053;-83
2022/06/11 04:33:49;;;;;;;2.80;1.50;;;20.30;93.20;;;;;;5014389;28;20040;-83
2022/06/11 04:36:17;;;;;;;6.88;1.33;;;20.30;93.20;;;;;;5013725;28;20041;-84
2022/06/11 04:38:44;;;;;;;3.63;1.40;;;20.40;93.20;;;;;;5013644;28;20038;-84
2022/06/11 04:41:10;;;;;;;6.55;1.55;;;20.40;93.40;;;;;;5013853;28;20388;-83
2022/06/11 04:43:36;;;;;;;7.68;1.65;;;20.40;93.40;;;;;;5013507;28;20038;-85
2022/06/11 04:46:04;;;;;;;4.32;1.38;;;20.40;93.40;;;;;;5013452;28;20061;-85
2022/06/11 04:48:30;;;;;;;;;;;20.50;93.80;;;;;;5014607;28;20025;-85
2022/06/11 04:50:56;;;;;;;4.18;1.58;;;20.50;93.60;;;;;;5013576;28;19920;-85
2022/06/11 04:53:23;;;;;;;5.97;1.25;;;20.60;93.50;;;;;;5013020;28;20681;-84
2022/06/11 04:55:49;;;;;;;7.50;1.65;;;20.60;93.40;;;;;;5013275;28;20053;-86
2022/06/11 04:58:18;;;;;;;5.38;1.63;;;20.60;93.50;;;;;;5013579;28;20034;-84
2022/06/11 05:00:44;;;;;;;5.95;1.58;;;20.60;93.70;;;;;;5013764;28;20056;-83
2022/06/11 05:03:10;;;;;;;6.13;1.60;;;20.70;93.30;;;;;;5013273;28;20030;-83
2022/06/11 05:05:36;;;;;;;4.45;1.38;;;20.70;93.40;;;;;;5013282;28;20079;-83
2022/06/11 05:08:03;;;;;;;10.60;1.70;;;20.70;93.40;;;;;;5013253;28;20360;-84
2022/06/11 05:10:34;;;;;;;5.28;1.95;;;20.70;93.60;;;;;;5011914;28;20040;-81
2022/06/11 05:13:00;;;;;;;2.63;1.10;;;20.80;93.20;;;;;;5012102;28;20022;-82
2022/06/11 05:15:26;;;;;;;5.25;1.63;;;20.80;93.20;;;;;;5012521;28;20067;-81
2022/06/11 05:17:52;;;;;;;4.38;1.73;;;20.80;93.10;;;;;;5012098;28;20068;-82
2022/06/11 05:20:19;;;;;;;3.90;1.45;;;20.80;93.10;;;;;;5013086;28;20037;-84
2022/06/11 05:22:45;;;;;;;5.20;1.45;;;20.90;93.40;;;;;;5013115;28;20034;-86
2022/06/11 05:25:13;;;;;;;4.15;1.63;;;20.90;93.10;;;;;;5013315;28;20029;-84
2022/06/11 05:27:41;;;;;;;;;;;21.00;93.00;;;;;;5013953;28;20060;-83
2022/06/11 05:30:09;;;;;;;;;;;21.00;92.90;;;;;;5013115;28;19953;-82
2022/06/11 05:32:37;;;;;;;3.42;1.70;;;21.00;92.90;;;;;;5012885;28;19914;-82
2022/06/11 05:35:06;;;;;;;7.30;1.95;;;21.10;92.90;;;;;;5012517;28;20030;-86
2022/06/11 05:37:33;;;;;;;3.33;1.42;;;21.10;93.20;;;;;;5013097;28;20034;-87
2022/06/11 05:40:01;;;;;;;8.25;2.53;;;21.20;92.90;;;;;;5013542;28;20099;-86
2022/06/11 05:42:28;;;;;;;11.02;2.45;;;21.30;92.80;;;;;;5013886;28;20018;-83
2022/06/11 05:44:53;;;;;;;4.93;1.90;;;21.30;92.80;;;;;;5012915;28;20045;-83
2022/06/11 05:47:23;;;;;;;6.40;1.70;;;21.40;92.80;;;;;;5012638;28;20034;-85
2022/06/11 05:49:54;;;;;;;7.65;1.70;;;21.40;92.80;;;;;;5013143;28;20030;-87
2022/06/11 05:52:23;;;;;;;8.13;2.35;;;21.50;92.80;;;;;;5012966;28;20345;-87
2022/06/11 05:54:54;;;;;;;6.35;1.92;;;21.50;92.70;;;;;;5014718;28;20021;-87
2022/06/11 05:57:25;;;;;;;10.07;2.33;;;21.50;92.80;;;;;;5013190;28;20041;-86
2022/06/11 06:00:03;;;;;;;7.00;1.63;;;21.40;93.00;;;;;;5013046;28;20123;-87
2022/06/11 06:02:30;;;;;;;4.28;1.73;;;21.40;93.00;;;;;;5012425;28;20352;-84
2022/06/11 06:04:56;;;;;;;4.47;1.53;;;21.50;93.10;;;;;;5012340;28;20057;-85
2022/06/11 06:07:22;;;;;;;7.60;2.40;;;21.50;93.00;;;;;;5010373;28;20080;-88
2022/06/11 06:09:48;;;;;;;9.13;1.80;;;21.60;93.00;;;;;;5011580;28;20482;-84
2022/06/11 06:12:16;;;;;;;8.57;1.95;;;21.60;93.00;;;;;;5011338;28;20082;-85
2022/06/11 06:14:42;;;;;;;;;;;21.60;93.00;;;;;;5012848;28;20053;-88
2022/06/11 06:17:08;;;;;;;6.65;2.50;;;21.70;92.90;;;;;;5012865;28;19955;-87
2022/06/11 06:19:33;;;;;;;6.65;2.20;;;21.70;92.90;;;;;;5011627;28;20374;-88
2022/06/11 06:22:04;;;;;;;6.43;2.10;;;21.70;93.00;;;;;;5012046;28;20030;-88
2022/06/11 06:24:33;;;;;;;7.95;2.67;;;21.80;93.00;;;;;;5013564;28;20161;-88
2022/06/11 06:27:00;;;;;;;9.75;3.08;;;22.00;92.90;;;;;;5013066;28;20025;-89
2022/06/11 06:29:25;;;;;;;6.22;2.60;;;22.00;92.80;;;;;;5013661;28;20034;-86
2022/06/11 06:31:51;;;;;;;10.27;3.03;;;21.90;92.90;;;;;;5013124;28;20473;-88
2022/06/11 06:34:17;;;;;;;18.30;2.67;;;22.10;93.10;;;;;;5012694;28;20033;-87
2022/06/11 06:36:43;;;;;;;8.70;3.53;;;22.00;93.30;;;;;;5011283;28;20149;-84
2022/06/11 06:39:09;;;;;;;14.02;4.15;;;21.90;93.40;;;;;;5012232;28;20062;-85
2022/06/11 06:41:35;;;;;;;9.38;3.75;;;22.10;93.50;;;;;;5011672;28;20468;-89
2022/06/11 06:44:01;;;;;;;7.78;3.55;;;22.10;93.60;;;;;;5011263;28;20034;-87
2022/06/11 06:46:27;;;;;;;8.90;3.83;;;22.20;93.60;;;;;;5011805;28;20181;-83
2022/06/11 06:48:54;;;;;;;11.10;4.18;;;22.30;93.40;;;;;;5011093;28;20443;-81
2022/06/11 06:51:21;;;;;;;11.63;3.92;;;22.30;93.60;;;;;;5010893;28;20041;-85
2022/06/11 06:53:47;;;;;;;10.70;4.35;;;22.20;93.60;;;;;;5011582;28;20030;-84
2022/06/11 06:56:13;;;;;;;15.35;5.47;;;22.30;93.50;;;;;;5011589;28;20034;-83
2022/06/11 06:58:39;;;;;;;14.70;5.20;;;22.30;93.40;;;;;;5010256;28;20355;-84
2022/06/11 07:01:05;;;;;;;11.45;5.05;;;22.30;93.50;;;;;;5010319;28;20438;-84
2022/06/11 07:03:31;;;;;;;12.93;5.35;;;22.20;93.70;;;;;;5011862;28;20400;-85
2022/06/11 07:05:56;;;;;;;12.02;4.38;;;22.10;93.70;;;;;;5011235;28;20464;-86
2022/06/11 07:08:22;;;;;;;7.65;3.50;;;22.10;93.50;;;;;;5011340;28;20037;-83
2022/06/11 07:10:53;;;;;;;10.73;3.83;;;22.10;93.20;;;;;;5011377;28;20054;-84
2022/06/11 07:13:20;;;;;;;10.35;3.50;;;21.90;93.30;;;;;;5009847;28;20121;-81
2022/06/11 07:15:49;;;;;;;9.50;2.50;;;22.10;93.00;;;;;;5011558;28;20025;-81
2022/06/11 07:18:23;;;;;;;6.93;2.53;;;22.10;92.50;;;;;;5009767;28;20065;-82
2022/06/11 07:20:52;;;;;;;5.18;2.47;;;22.20;92.30;;;;;;5011155;28;20045;-85
2022/06/11 07:23:35;;;;;;;9.02;2.20;;;22.30;91.90;;;;;;5011521;28;20037;-82
2022/06/11 07:26:06;;;;;;;7.93;2.85;;;22.40;91.60;;;;;;5010961;28;20120;-82
2022/06/11 07:28:38;;;;;;;8.95;3.75;;;22.50;91.50;;;;;;5009749;28;20053;-81
2022/06/11 07:31:04;;;;;;;7.82;2.28;;;22.70;91.20;;;;;;5010775;28;20049;-84
2022/06/11 07:33:30;;;;;;;5.60;1.85;;;22.50;91.10;;;;;;5011308;28;20034;-84
2022/06/11 07:35:56;;;;;;;6.82;1.90;;;22.50;91.10;;;;;;5009816;28;20424;-83
2022/06/11 07:38:23;;;;;;;4.85;2.20;;;22.60;90.80;;;;;;5011046;28;20041;-82
2022/06/11 07:40:49;;;;;;;8.48;2.40;;;22.90;90.60;;;;;;5010580;28;20101;-82
2022/06/11 07:43:15;;;;;;;4.82;1.75;;;22.80;90.70;;;;;;5010843;28;20038;-82
2022/06/11 07:45:44;;;;;;;4.07;2.35;;;22.90;90.60;;;;;;5011031;28;20034;-83
2022/06/11 07:48:10;;;;;;;6.63;2.13;;;23.00;90.10;;;;;;5009777;28;20042;-85
2022/06/11 07:50:40;;;;;;;4.22;2.05;;;23.10;90.10;;;;;;5011184;28;20467;-82
2022/06/11 07:53:07;;;;;;;6.68;1.85;;;23.20;90.00;;;;;;5011036;28;20418;-80
2022/06/11 07:55:34;;;;;;;3.92;1.60;;;23.30;88.80;;;;;;5010944;28;20030;-82
2022/06/11 07:58:01;;;;;;;4.53;1.35;;;23.40;88.80;;;;;;5010001;28;20113;-85
2022/06/11 08:00:30;;;;;;;3.40;1.35;;;23.20;87.40;;;;;;5011704;28;20081;-92
2022/06/11 08:02:56;;;;;;;3.10;1.60;;;23.50;86.60;;;;;;5011411;28;20026;-76
2022/06/11 08:05:22;;;;;;;3.40;1.23;;;23.70;87.00;;;;;;5009993;28;20038;-91
2022/06/11 08:07:51;;;;;;;2.65;1.00;;;24.00;85.50;;;;;;5011179;28;20383;-83
2022/06/11 08:10:17;;;;;;;2.90;1.10;;;24.60;84.20;;;;;;5010732;28;20099;-78
2022/06/11 08:12:42;;;;;;;4.72;1.45;;;25.40;81.60;;;;;;5010725;28;20038;-81
2022/06/11 08:15:09;;;;;;;2.70;1.10;;;26.10;80.30;;;;;;5010497;28;20022;-75
2022/06/11 08:17:35;;;;;;;1.85;0.73;;;27.40;78.00;;;;;;5009846;28;20042;-74
2022/06/11 08:20:02;;;;;;;4.78;0.90;;;27.50;74.60;;;;;;5009943;28;20091;-74
2022/06/11 08:22:28;;;;;;;1.95;1.02;;;28.10;73.00;;;;;;5010419;28;20048;-76
2022/06/11 08:24:54;;;;;;;1.58;0.75;;;29.20;72.70;;;;;;5010214;28;20022;-73
2022/06/11 08:27:19;;;;;;;3.10;1.50;;;29.00;67.90;;;;;;5010335;28;20018;-77
2022/06/11 08:29:45;;;;;;;1.98;0.80;;;28.90;68.70;;;;;;5011685;28;20185;-75
2022/06/11 08:32:12;;;;;;;3.17;1.05;;;28.50;68.40;;;;;;5011791;28;20049;-75
2022/06/11 08:34:39;;;;;;;3.70;0.98;;;29.00;67.30;;;;;;5013476;28;20030;-78
2022/06/11 08:37:05;;;;;;;3.10;1.00;;;28.50;65.50;;;;;;5013591;28;20145;-74
2022/06/11 08:39:31;;;;;;;1.67;0.77;;;29.00;65.90;;;;;;5012930;28;20156;-73
2022/06/11 08:41:59;;;;;;;3.70;1.17;;;28.90;65.00;;;;;;5013432;28;20109;-74
2022/06/11 08:44:27;;;;;;;3.20;1.02;;;29.60;63.60;;;;;;5013941;28;20041;-82
2022/06/11 08:46:59;;;;;;;1.50;0.77;;;28.80;64.20;;;;;;5014338;28;20037;-79
2022/06/11 08:49:38;;;;;;;1.38;1.00;;;28.70;64.80;;;;;;5013627;28;20038;-85
2022/06/11 08:52:07;;;;;;;2.05;0.90;;;29.00;65.10;;;;;;5012408;28;20523;-82
2022/06/11 08:54:36;;;;;;;1.85;0.82;;;29.60;63.00;;;;;;5014391;28;20050;-79
2022/06/11 08:57:15;;;;;;;3.38;0.75;;;30.00;61.90;;;;;;5013459;28;20041;-86
2022/06/11 09:00:12;;;;;;;3.47;2.42;;;30.00;61.20;;;;;;5013724;28;20049;-79
2022/06/11 09:02:40;;;;;;;2.93;1.87;;;30.20;60.70;;;;;;5013669;28;20460;-80
2022/06/11 09:05:28;;;;;;;3.38;0.98;;;31.40;59.20;;;;;;5013606;28;20054;-79
2022/06/11 09:08:07;;;;;;;1.67;0.73;;;31.80;57.20;;;;;;5013121;28;20030;-74
2022/06/11 09:11:07;;;;;;;3.97;0.95;;;30.40;58.20;;;;;;5011847;28;20404;-83
2022/06/11 09:13:53;;;;;;;1.05;0.65;;;30.50;57.80;;;;;;5011754;28;20116;-79
2022/06/11 09:16:41;;;;;;;1.75;0.65;;;29.40;58.40;;;;;;5012610;28;20051;-79
2022/06/11 09:19:44;;;;;;;1.85;0.65;;;29.00;59.40;;;;;;5012762;28;20057;-80
2022/06/11 09:22:18;;;;;;;4.45;0.80;;;29.50;59.30;;;;;;5012839;28;20041;-79
2022/06/11 09:25:18;;;;;;;2.05;0.90;;;28.90;59.90;;;;;;5012214;28;20014;-76
2022/06/11 09:27:58;;;;;;;1.48;1.00;;;29.20;59.80;;;;;;5012475;28;20061;-78
2022/06/11 09:30:38;;;;;;;4.57;0.75;;;29.00;59.00;;;;;;5011960;28;20038;-77
2022/06/11 09:33:29;;;;;;;2.25;0.80;;;28.60;60.00;;;;;;5012304;28;20172;-76
2022/06/11 09:36:06;;;;;;;5.00;0.80;;;27.70;61.20;;;;;;5012287;28;20100;-75
2022/06/11 09:39:09;;;;;;;3.63;0.77;;;27.20;62.90;;;;;;5013604;28;20509;-77
2022/06/11 09:41:48;;;;;;;2.60;0.70;;;27.50;62.80;;;;;;5012119;28;20040;-79
2022/06/11 09:44:44;;;;;;;3.03;0.60;;;27.70;63.30;;;;;;5012459;28;20065;-79
2022/06/11 09:47:15;;;;;;;3.50;0.90;;;27.90;61.90;;;;;;5012436;28;20042;-74
2022/06/11 09:50:20;;;;;;;3.28;0.85;;;27.60;62.80;;;;;;5011099;28;20529;-76
2022/06/11 09:53:03;;;;;;;3.10;0.80;;;27.90;62.40;;;;;;5012386;28;20058;-75
2022/06/11 09:55:47;;;;;;;2.55;0.90;;;27.40;62.10;;;;;;5010644;28;20456;-78
2022/06/11 09:58:38;;;;;;;0.80;0.60;;;26.90;63.40;;;;;;5010733;28;20041;-73
2022/06/11 10:01:19;;;;;;;3.00;1.00;;;26.40;64.00;;;;;;5010747;28;20022;-75
2022/06/11 10:03:56;;;;;;;3.15;1.25;;;26.50;64.80;;;;;;5012366;28;20067;-74
2022/06/11 10:06:44;;;;;;;1.92;0.80;;;26.50;65.20;;;;;;5010841;28;20323;-74
2022/06/11 10:09:21;;;;;;;1.83;0.50;;;26.60;65.30;;;;;;5011799;28;20129;-73
2022/06/11 10:12:21;;;;;;;2.42;1.00;;;26.50;65.40;;;;;;5011085;28;20034;-76
2022/06/11 10:14:55;;;;;;;2.55;1.02;;;26.70;65.20;;;;;;5006956;28;20030;-76
2022/06/11 10:17:52;;;;;;;2.13;0.60;;;26.70;65.00;;;;;;5011752;28;20380;-74
2022/06/11 10:20:38;;;;;;;1.02;0.80;;;26.10;65.70;;;;;;5011132;28;20413;-77
2022/06/11 10:23:25;;;;;;;4.60;0.73;;;25.80;67.00;;;;;;5011761;28;20472;-77
2022/06/11 10:26:15;;;;;;;3.55;0.80;;;25.50;66.80;;;;;;5011601;28;20030;-77
2022/06/11 10:28:41;;;;;;;2.00;0.68;;;26.00;67.00;;;;;;5010326;28;20091;-75
2022/06/11 10:31:22;;;;;;;2.38;0.68;;;25.90;66.80;;;;;;5010990;28;20058;-74
2022/06/11 10:33:51;;;;;;;1.30;0.80;;;26.00;66.10;;;;;;5012053;28;20026;-74
2022/06/11 10:36:42;;;;;;;2.45;0.90;;;26.20;66.70;;;;;;5010052;28;20475;-75
2022/06/11 10:39:24;;;;;;;2.97;1.30;;;26.60;66.30;;;;;;5011345;28;20052;-75
2022/06/11 10:42:13;;;;;;;38.25;22.35;;;26.60;66.10;;;;;;5010943;28;20050;-76
2022/06/11 10:44:51;;;;;;;3.88;1.80;;;26.80;66.50;;;;;;5010024;28;20038;-74
2022/06/11 10:47:18;;;;;;;2.15;1.10;;;27.00;65.30;;;;;;5010850;28;20026;-75
2022/06/11 10:49:48;;;;;;;6.90;1.00;;;26.70;66.00;;;;;;5011001;28;20161;-75
2022/06/11 10:52:22;;;;;;;3.50;0.90;;;26.60;66.40;;;;;;5010488;28;20108;-76
2022/06/11 10:54:48;;;;;;;1.15;0.50;;;26.70;66.60;;;;;;5011274;28;20376;-78
2022/06/11 10:57:25;;;;;;;1.70;0.75;;;26.30;67.40;;;;;;5010830;28;20030;-78
2022/06/11 11:00:20;;;;;;;4.03;0.80;;;26.50;67.40;;;;;;5010890;28;20045;-79
2022/06/11 11:03:00;;;;;;;2.38;0.80;;;26.50;66.60;;;;;;5009298;28;20061;-72
2022/06/11 11:05:49;;;;;;;3.58;0.80;;;26.40;65.90;;;;;;5009740;28;20054;-77
2022/06/11 11:08:16;;;;;;;2.47;0.85;;;26.20;65.40;;;;;;5010617;28;20084;-77
2022/06/11 11:10:51;;;;;;;2.72;1.00;;;26.10;65.90;;;;;;5009175;28;20053;-75
2022/06/11 11:13:30;;;;;;;2.35;0.68;;;26.20;66.40;;;;;;5010580;28;20042;-76
2022/06/11 11:16:21;;;;;;;1.98;0.65;;;26.10;65.70;;;;;;5010883;28;20022;-76
2022/06/11 11:19:11;;;;;;;2.22;0.90;;;26.00;65.40;;;;;;5011175;28;20026;-78
2022/06/11 11:21:47;;;;;;;3.22;2.15;;;26.10;65.30;;;;;;5009828;28;20461;-76
2022/06/11 11:24:22;;;;;;;2.28;1.33;;;26.20;65.60;;;;;;5010328;28;20073;-79
2022/06/11 11:26:56;;;;;;;2.50;1.13;;;26.30;65.20;;;;;;5010764;28;20480;-79
2022/06/11 11:29:27;;;;;;;5.22;1.35;;;26.20;65.50;;;;;;5010691;28;20042;-80
2022/06/11 11:32:04;;;;;;;3.30;1.10;;;26.60;65.90;;;;;;5010478;28;20053;-84
2022/06/11 11:34:41;;;;;;;1.93;0.90;;;26.70;65.80;;;;;;5010804;28;20388;-82
2022/06/11 11:37:13;;;;;;;1.80;1.10;;;26.70;65.40;;;;;;5010610;28;20018;-83
2022/06/11 11:39:55;;;;;;;1.45;0.73;;;26.80;65.40;;;;;;5011457;28;20056;-81
2022/06/11 11:42:31;;;;;;;1.33;0.77;;;26.90;65.30;;;;;;5009999;28;20045;-84
2022/06/11 11:44:59;;;;;;;2.17;1.15;;;26.80;64.40;;;;;;5009907;28;20088;-79
2022/06/11 11:47:35;;;;;;;1.85;0.95;;;26.70;65.10;;;;;;5009509;28;20056;-81
2022/06/11 11:50:16;;;;;;;1.83;0.82;;;26.60;65.40;;;;;;5009463;28;20603;-79
2022/06/11 11:53:05;;;;;;;1.75;0.90;;;26.70;65.00;;;;;;5010701;28;20034;-80
2022/06/11 11:55:36;;;;;;;14.95;9.32;;;26.70;65.10;;;;;;5010574;28;20065;-79
2022/06/11 11:58:14;;;;;;;3.10;2.05;;;26.40;65.40;;;;;;5010770;28;20018;-84
2022/06/11 12:00:50;;;;;;;2.72;1.02;;;26.70;65.40;;;;;;5011844;28;20018;-82
2022/06/11 12:03:45;;;;;;;2.38;1.08;;;26.70;64.60;;;;;;5012695;28;20364;-85
2022/06/11 12:06:25;;;;;;;1.80;1.02;;;26.90;63.70;;;;;;5015902;28;20099;-90
2022/06/11 12:08:54;;;;;;;3.00;1.00;;;27.00;63.10;;;;;;5014844;28;20054;-82
2022/06/11 12:11:28;;;;;;;3.60;1.98;;;26.80;62.80;;;;;;5015128;28;20061;-85
2022/06/11 12:14:13;;;;;;;2.60;1.50;;;26.90;63.00;;;;;;5014684;28;20045;-87
2022/06/11 12:17:09;;;;;;;1.73;1.05;;;27.10;62.90;;;;;;5014685;28;20053;-85
2022/06/11 12:19:35;;;;;;;2.75;0.88;;;27.10;62.90;;;;;;5015071;28;20061;-84
2022/06/11 12:22:06;;;;;;;1.90;0.80;;;27.20;63.00;;;;;;5015113;28;20034;-85
2022/06/11 12:24:42;;;;;;;5.82;1.13;;;27.10;62.40;;;;;;5015426;28;20037;-82
2022/06/11 12:27:39;;;;;;;3.85;1.00;;;27.00;62.80;;;;;;5014528;28;20026;-83
2022/06/11 12:30:17;;;;;;;10.83;7.03;;;27.20;61.60;;;;;;5014479;28;20277;-84
2022/06/11 12:32:43;;;;;;;2.13;1.02;;;27.10;61.40;;;;;;5013421;28;20045;-83
2022/06/11 12:35:31;;;;;;;2.80;1.00;;;27.00;61.30;;;;;;5013991;28;20090;-83
2022/06/11 12:38:13;;;;;;;;;;;27.10;61.40;;;;;;5018706;28;20038;-83
2022/06/11 12:41:15;;;;;;;4.15;0.90;;;27.10;60.10;;;;;;5019260;28;19920;-83
2022/06/11 12:44:08;;;;;;;2.72;0.80;;;27.10;60.80;;;;;;5017993;28;20026;-83
2022/06/11 12:46:55;;;;;;;2.22;0.95;;;27.10;60.50;;;;;;5016386;28;20109;-83
2022/06/11 12:49:26;;;;;;;2.20;0.90;;;27.30;61.20;;;;;;5018386;28;20117;-83
2022/06/11 12:52:06;;;;;;;2.88;1.02;;;27.10;60.80;;;;;;5020186;28;20026;-85
2022/06/11 12:54:35;;;;;;;4.07;1.05;;;26.80;60.20;;;;;;5021827;28;20105;-84
2022/06/11 12:57:19;;;;;;;2.97;1.13;;;26.50;60.80;;;;;;5023024;28;20034;-81
2022/06/11 13:00:03;;;;;;;2.03;0.90;;;26.60;60.70;;;;;;5020919;28;20029;-83
2022/06/11 13:02:56;;;;;;;3.53;1.30;;;26.20;61.20;;;;;;5026744;28;20037;-81
2022/06/11 13:05:40;;;;;;;2.00;1.10;;;26.40;61.50;;;;;;5023723;28;20045;-83
2022/06/11 13:08:30;;;;;;;5.45;0.98;;;26.30;61.70;;;;;;5015040;28;20125;-81
2022/06/11 13:11:15;;;;;;;4.07;1.27;;;26.30;62.00;;;;;;5014154;28;20053;-83
2022/06/11 13:13:40;;;;;;;4.28;1.20;;;26.30;62.60;;;;;;5013813;28;20030;-84
2022/06/11 13:16:52;;;;;;;2.75;0.80;;;26.30;62.70;;;;;;5012096;28;20036;-82
2022/06/11 13:20:05;;;;;;;2.85;1.00;;;26.30;62.80;;;;;;5005240;28;20095;-82
2022/06/11 13:22:37;;;;;;;2.42;1.15;;;26.50;62.70;;;;;;5012922;28;20053;-82